Time,TemperatureF,DewpointF,PressureIn,WindDirection,WindDirectionDegrees,WindSpeedMPH,WindSpeedGustMPH,Humidity,HourlyPrecipIn,Conditions,Clouds,dailyrainin,SoftwareType,DateUTC
2013-06-29 00:33:00,76.0,28.0,-100.00,West,260,25.0,33.0,17,0.00,,,-99.99,,2013-06-29 07:33:00,
2013-06-29 00:43:00,76.0,28.0,-100.00,West,260,25.0,33.0,17,0.00,,,-99.99,,2013-06-29 07:43:00,
2013-06-29 00:52:00,76.0,28.0,-100.00,WNW,290,26.0,30.0,17,0.00,,,-99.99,,2013-06-29 07:52:00,
2013-06-29 01:33:00,76.0,28.0,-100.00,WNW,290,26.0,30.0,17,0.00,,,-99.99,,2013-06-29 08:33:00,
2013-06-29 01:43:00,76.0,28.0,-100.00,WNW,290,26.0,30.0,17,0.00,,,-99.99,,2013-06-29 08:43:00,
2013-06-29 01:52:00,77.0,29.0,-100.00,WNW,290,20.0,31.0,17,0.00,,,-99.99,,2013-06-29 08:52:00,
2013-06-29 02:33:00,77.0,29.0,-100.00,WNW,290,20.0,31.0,17,0.00,,,-99.99,,2013-06-29 09:33:00,
2013-06-29 02:42:00,77.0,29.0,-100.00,WNW,290,20.0,31.0,17,0.00,,,-99.99,,2013-06-29 09:42:00,
2013-06-29 02:52:00,77.0,30.0,-100.00,West,280,24.0,26.0,18,0.00,,,-99.99,,2013-06-29 09:52:00,
2013-06-29 03:33:00,77.0,30.0,-100.00,West,280,24.0,26.0,18,0.00,,,-99.99,,2013-06-29 10:33:00,
2013-06-29 03:43:00,77.0,30.0,-100.00,West,280,24.0,26.0,18,0.00,,,-99.99,,2013-06-29 10:43:00,
2013-06-29 03:52:00,77.0,29.0,-100.00,West,280,14.0,25.0,17,0.00,,,-99.99,,2013-06-29 10:52:00,
2013-06-29 04:52:00,79.0,33.0,-100.00,West,270,16.0,19.0,19,0.00,,,-99.99,,2013-06-29 11:52:00,
2013-06-29 05:34:00,79.0,33.0,-100.00,West,270,16.0,19.0,19,0.00,,,-99.99,,2013-06-29 12:34:00,
2013-06-29 05:43:00,79.0,33.0,-100.00,West,270,16.0,19.0,19,0.00,,,-99.99,,2013-06-29 12:43:00,
2013-06-29 06:34:00,79.0,34.0,-100.00,West,260,16.0,20.0,20,0.00,,,-99.99,,2013-06-29 13:34:00,
2013-06-29 06:52:00,81.0,31.0,-100.00,West,270,9.0,14.0,16,0.00,,,-99.99,,2013-06-29 13:52:00,
2013-06-29 08:33:00,83.0,29.0,-100.00,West,280,9.0,11.0,14,0.00,,,-99.99,,2013-06-29 15:33:00,
2013-06-29 08:42:00,83.0,29.0,-100.00,West,280,9.0,11.0,14,0.00,,,-99.99,,2013-06-29 15:42:00,
2013-06-29 08:52:00,83.0,31.0,-100.00,WNW,300,11.0,13.0,15,0.00,,,-99.99,,2013-06-29 15:52:00,
2013-06-29 09:33:00,83.0,31.0,-100.00,WNW,300,11.0,13.0,15,0.00,,,-99.99,,2013-06-29 16:33:00,
2013-06-29 09:43:00,83.0,31.0,-100.00,WNW,300,11.0,13.0,15,0.00,,,-99.99,,2013-06-29 16:43:00,
2013-06-29 09:52:00,83.0,38.0,-100.00,SW,220,3.0,8.0,20,0.00,,,-99.99,,2013-06-29 16:52:00,
2013-06-29 10:33:00,83.0,38.0,-100.00,SW,220,3.0,8.0,20,0.00,,,-99.99,,2013-06-29 17:33:00,
2013-06-29 10:42:00,83.0,38.0,-100.00,SW,220,3.0,8.0,20,0.00,,,-99.99,,2013-06-29 17:42:00,
2013-06-29 10:52:00,88.0,33.0,-100.00,NE,50,4.0,8.0,14,0.00,,,-99.99,,2013-06-29 17:52:00,
2013-06-29 11:34:00,88.0,33.0,-100.00,NE,50,4.0,8.0,14,0.00,,,-99.99,,2013-06-29 18:34:00,
2013-06-29 11:43:00,88.0,33.0,-100.00,NE,50,4.0,8.0,14,0.00,,,-99.99,,2013-06-29 18:43:00,
2013-06-29 11:52:00,90.0,34.0,-100.00,NNE,20,3.0,8.0,14,0.00,,,-99.99,,2013-06-29 18:52:00,
2013-06-29 12:34:00,90.0,34.0,-100.00,NNE,20,3.0,8.0,14,0.00,,,-99.99,,2013-06-29 19:34:00,
2013-06-29 12:43:00,90.0,34.0,-100.00,NNE,20,3.0,8.0,14,0.00,,,-99.99,,2013-06-29 19:43:00,
2013-06-29 12:52:00,89.0,32.0,-100.00,NE,50,7.0,12.0,13,0.00,,,-99.99,,2013-06-29 19:52:00,
2013-06-29 13:33:00,89.0,32.0,-100.00,NE,50,7.0,12.0,13,0.00,,,-99.99,,2013-06-29 20:33:00,
2013-06-29 13:43:00,89.0,32.0,-100.00,NE,50,7.0,12.0,13,0.00,,,-99.99,,2013-06-29 20:43:00,
2013-06-29 13:52:00,92.0,32.0,-100.00,NE,40,4.0,13.0,12,0.00,,,-99.99,,2013-06-29 20:52:00,
2013-06-29 14:32:00,92.0,32.0,-100.00,NE,40,4.0,13.0,12,0.00,,,-99.99,,2013-06-29 21:32:00,
2013-06-29 14:42:00,92.0,32.0,-100.00,NE,40,4.0,13.0,12,0.00,,,-99.99,,2013-06-29 21:42:00,
2013-06-29 14:52:00,89.0,32.0,-100.00,NE,40,5.0,12.0,13,0.00,,,-99.99,,2013-06-29 21:52:00,
2013-06-29 15:33:00,89.0,32.0,-100.00,NE,40,5.0,12.0,13,0.00,,,-99.99,,2013-06-29 22:33:00,
2013-06-29 15:43:00,89.0,32.0,-100.00,NE,40,5.0,12.0,13,0.00,,,-99.99,,2013-06-29 22:43:00,
2013-06-29 15:52:00,92.0,32.0,-100.00,NNW,330,3.0,8.0,12,0.00,,,-99.99,,2013-06-29 22:52:00,
2013-06-29 16:33:00,92.0,32.0,-100.00,NNW,330,3.0,8.0,12,0.00,,,-99.99,,2013-06-29 23:33:00,
2013-06-29 16:43:00,92.0,32.0,-100.00,NNW,330,3.0,8.0,12,0.00,,,-99.99,,2013-06-29 23:43:00,
2013-06-29 16:52:00,84.0,41.0,-100.00,West,280,16.0,22.0,22,0.00,,,-99.99,,2013-06-29 23:52:00,
2013-06-29 17:33:00,84.0,41.0,-100.00,West,280,16.0,22.0,22,0.00,,,-99.99,,2013-06-30 00:33:00,
2013-06-29 17:43:00,84.0,41.0,-100.00,West,280,16.0,22.0,22,0.00,,,-99.99,,2013-06-30 00:43:00,
2013-06-29 17:52:00,83.0,38.0,-100.00,West,280,17.0,22.0,20,0.00,,,-99.99,,2013-06-30 00:52:00,
2013-06-29 18:33:00,83.0,38.0,-100.00,West,280,17.0,22.0,20,0.00,,,-99.99,,2013-06-30 01:33:00,
2013-06-29 18:44:00,83.0,38.0,-100.00,West,280,17.0,22.0,20,0.00,,,-99.99,,2013-06-30 01:44:00,
2013-06-29 18:52:00,81.0,41.0,-100.00,WSW,250,12.0,21.0,24,0.00,,,-99.99,,2013-06-30 01:52:00,
2013-06-29 19:33:00,81.0,41.0,-100.00,WSW,250,12.0,21.0,24,0.00,,,-99.99,,2013-06-30 02:33:00,
2013-06-29 19:43:00,81.0,41.0,-100.00,WSW,250,12.0,21.0,24,0.00,,,-99.99,,2013-06-30 02:43:00,
2013-06-29 19:52:00,82.0,36.0,-100.00,WNW,300,12.0,19.0,19,0.00,,,-99.99,,2013-06-30 02:52:00,
2013-06-29 20:33:00,82.0,36.0,-100.00,WNW,300,12.0,19.0,19,0.00,,,-99.99,,2013-06-30 03:33:00,
2013-06-29 20:43:00,82.0,36.0,-100.00,WNW,300,12.0,19.0,19,0.00,,,-99.99,,2013-06-30 03:43:00,
2013-06-29 20:52:00,81.0,36.0,-100.00,WNW,290,3.0,10.0,20,0.00,,,-99.99,,2013-06-30 03:52:00,
2013-06-29 21:33:00,81.0,36.0,-100.00,WNW,290,3.0,10.0,20,0.00,,,-99.99,,2013-06-30 04:33:00,
2013-06-29 21:43:00,81.0,36.0,-100.00,WNW,290,3.0,10.0,20,0.00,,,-99.99,,2013-06-30 04:43:00,
2013-06-29 21:52:00,82.0,31.0,-100.00,WNW,300,11.0,17.0,16,0.00,,,-99.99,,2013-06-30 04:52:00,
2013-06-29 22:33:00,82.0,31.0,-100.00,WNW,300,11.0,17.0,16,0.00,,,-99.99,,2013-06-30 05:33:00,
2013-06-29 22:43:00,82.0,31.0,-100.00,WNW,300,11.0,17.0,16,0.00,,,-99.99,,2013-06-30 05:43:00,
2013-06-29 22:52:00,83.0,32.0,-100.00,West,270,4.0,9.0,16,0.00,,,-99.99,,2013-06-30 05:52:00,
2013-06-29 23:33:00,83.0,32.0,-100.00,West,270,4.0,9.0,16,0.00,,,-99.99,,2013-06-30 06:33:00,
2013-06-29 23:52:00,82.0,31.0,-100.00,WSW,240,2.0,2.0,16,0.00,,,-99.99,,2013-06-30 06:52:00,